sensor_id;sensor_type;location;lat;lon;timestamp;P1;durP1;ratioP1;P2;durP2;ratioP2
5989;SDS011;14149;53.562;10.032;2022-12-17T00:00:07;70.30;;;30.70;;
5989;SDS011;14149;53.562;10.032;2022-12-17T00:02:56;48.07;;;22.67;;
5989;SDS011;14149;53.562;10.032;2022-12-17T00:05:41;47.43;;;22.70;;
5989;SDS011;14149;53.562;10.032;2022-12-17T00:08:26;42.57;;;23.77;;
5989;SDS011;14149;53.562;10.032;2022-12-17T00:11:10;46.53;;;23.20;;
5989;SDS011;14149;53.562;10.032;2022-12-17T00:13:55;43.13;;;22.80;;
5989;SDS011;14149;53.562;10.032;2022-12-17T00:16:40;52.87;;;23.70;;
5989;SDS011;14149;53.562;10.032;2022-12-17T00:19:24;48.80;;;24.90;;
5989;SDS011;14149;53.562;10.032;2022-12-17T00:22:09;57.37;;;25.23;;
5989;SDS011;14149;53.562;10.032;2022-12-17T00:24:54;44.33;;;22.87;;
5989;SDS011;14149;53.562;10.032;2022-12-17T00:27:38;54.00;;;25.47;;
5989;SDS011;14149;53.562;10.032;2022-12-17T00:30:23;45.73;;;23.17;;
5989;SDS011;14149;53.562;10.032;2022-12-17T00:33:07;44.27;;;23.43;;
5989;SDS011;14149;53.562;10.032;2022-12-17T00:35:52;56.77;;;23.50;;
5989;SDS011;14149;53.562;10.032;2022-12-17T00:38:37;47.90;;;23.80;;
5989;SDS011;14149;53.562;10.032;2022-12-17T00:41:22;39.37;;;21.53;;
5989;SDS011;14149;53.562;10.032;2022-12-17T00:44:07;46.97;;;23.20;;
5989;SDS011;14149;53.562;10.032;2022-12-17T00:46:51;57.90;;;23.87;;
5989;SDS011;14149;53.562;10.032;2022-12-17T00:49:36;44.63;;;24.03;;
5989;SDS011;14149;53.562;10.032;2022-12-17T00:52:21;47.23;;;25.20;;
5989;SDS011;14149;53.562;10.032;2022-12-17T00:55:05;42.70;;;23.27;;
5989;SDS011;14149;53.562;10.032;2022-12-17T00:57:54;63.90;;;25.37;;
5989;SDS011;14149;53.562;10.032;2022-12-17T01:00:39;41.87;;;22.20;;
5989;SDS011;14149;53.562;10.032;2022-12-17T01:03:24;56.83;;;24.47;;
5989;SDS011;14149;53.562;10.032;2022-12-17T01:06:09;49.50;;;26.13;;
5989;SDS011;14149;53.562;10.032;2022-12-17T01:08:53;49.10;;;24.40;;
5989;SDS011;14149;53.562;10.032;2022-12-17T01:11:38;54.40;;;26.53;;
5989;SDS011;14149;53.562;10.032;2022-12-17T01:14:23;51.73;;;26.00;;
5989;SDS011;14149;53.562;10.032;2022-12-17T01:17:08;52.67;;;26.27;;
5989;SDS011;14149;53.562;10.032;2022-12-17T01:19:53;49.17;;;26.30;;
5989;SDS011;14149;53.562;10.032;2022-12-17T01:22:38;50.47;;;24.07;;
5989;SDS011;14149;53.562;10.032;2022-12-17T01:25:22;53.70;;;27.00;;
5989;SDS011;14149;53.562;10.032;2022-12-17T01:28:07;50.70;;;26.33;;
5989;SDS011;14149;53.562;10.032;2022-12-17T01:30:56;56.40;;;24.67;;
5989;SDS011;14149;53.562;10.032;2022-12-17T01:33:41;49.17;;;24.03;;
5989;SDS011;14149;53.562;10.032;2022-12-17T01:36:26;47.90;;;26.07;;
5989;SDS011;14149;53.562;10.032;2022-12-17T01:39:10;44.33;;;25.30;;
5989;SDS011;14149;53.562;10.032;2022-12-17T01:41:55;41.97;;;22.47;;
5989;SDS011;14149;53.562;10.032;2022-12-17T01:44:47;53.97;;;25.90;;
5989;SDS011;14149;53.562;10.032;2022-12-17T01:47:51;42.73;;;22.77;;
5989;SDS011;14149;53.562;10.032;2022-12-17T01:50:38;71.57;;;31.90;;
5989;SDS011;14149;53.562;10.032;2022-12-17T01:53:24;41.83;;;24.23;;
5989;SDS011;14149;53.562;10.032;2022-12-17T01:56:10;48.30;;;25.00;;
5989;SDS011;14149;53.562;10.032;2022-12-17T01:58:56;48.27;;;24.87;;
5989;SDS011;14149;53.562;10.032;2022-12-17T02:01:41;44.63;;;23.90;;
5989;SDS011;14149;53.562;10.032;2022-12-17T02:04:25;50.93;;;26.27;;
5989;SDS011;14149;53.562;10.032;2022-12-17T02:13:03;43.43;;;24.60;;
5989;SDS011;14149;53.562;10.032;2022-12-17T02:15:50;50.17;;;24.77;;
5989;SDS011;14149;53.562;10.032;2022-12-17T02:18:43;51.60;;;24.50;;
5989;SDS011;14149;53.562;10.032;2022-12-17T02:21:29;45.17;;;23.20;;
5989;SDS011;14149;53.562;10.032;2022-12-17T02:27:08;45.40;;;23.50;;
5989;SDS011;14149;53.562;10.032;2022-12-17T02:29:53;43.43;;;22.50;;
5989;SDS011;14149;53.562;10.032;2022-12-17T02:32:40;42.27;;;21.77;;
5989;SDS011;14149;53.562;10.032;2022-12-17T02:35:27;42.90;;;22.77;;
5989;SDS011;14149;53.562;10.032;2022-12-17T02:38:16;50.43;;;22.67;;
5989;SDS011;14149;53.562;10.032;2022-12-17T02:41:02;48.53;;;24.07;;
5989;SDS011;14149;53.562;10.032;2022-12-17T02:43:49;49.27;;;23.03;;
5989;SDS011;14149;53.562;10.032;2022-12-17T02:46:33;46.73;;;23.80;;
5989;SDS011;14149;53.562;10.032;2022-12-17T02:49:19;43.30;;;23.70;;
5989;SDS011;14149;53.562;10.032;2022-12-17T02:52:03;40.63;;;22.50;;
5989;SDS011;14149;53.562;10.032;2022-12-17T02:54:48;37.50;;;18.80;;
5989;SDS011;14149;53.562;10.032;2022-12-17T02:57:33;45.53;;;21.93;;
5989;SDS011;14149;53.562;10.032;2022-12-17T03:00:17;47.50;;;23.47;;
5989;SDS011;14149;53.562;10.032;2022-12-17T03:03:02;47.23;;;23.63;;
5989;SDS011;14149;53.562;10.032;2022-12-17T03:05:47;51.40;;;25.43;;
5989;SDS011;14149;53.562;10.032;2022-12-17T03:08:31;53.20;;;25.13;;
5989;SDS011;14149;53.562;10.032;2022-12-17T03:11:16;51.20;;;23.67;;
5989;SDS011;14149;53.562;10.032;2022-12-17T03:14:01;52.13;;;25.70;;
5989;SDS011;14149;53.562;10.032;2022-12-17T03:16:45;52.63;;;23.87;;
5989;SDS011;14149;53.562;10.032;2022-12-17T03:19:30;44.13;;;23.33;;
5989;SDS011;14149;53.562;10.032;2022-12-17T03:22:15;47.47;;;23.07;;
5989;SDS011;14149;53.562;10.032;2022-12-17T03:24:59;44.40;;;22.13;;
5989;SDS011;14149;53.562;10.032;2022-12-17T03:27:44;46.80;;;24.10;;
5989;SDS011;14149;53.562;10.032;2022-12-17T03:30:28;47.73;;;23.83;;
5989;SDS011;14149;53.562;10.032;2022-12-17T03:33:13;50.73;;;24.40;;
5989;SDS011;14149;53.562;10.032;2022-12-17T03:35:58;44.77;;;23.23;;
5989;SDS011;14149;53.562;10.032;2022-12-17T03:38:42;49.67;;;22.90;;
5989;SDS011;14149;53.562;10.032;2022-12-17T03:41:27;51.07;;;24.60;;
5989;SDS011;14149;53.562;10.032;2022-12-17T03:44:11;52.90;;;26.93;;
5989;SDS011;14149;53.562;10.032;2022-12-17T03:46:56;42.23;;;21.60;;
5989;SDS011;14149;53.562;10.032;2022-12-17T03:49:41;54.77;;;25.60;;
5989;SDS011;14149;53.562;10.032;2022-12-17T03:52:25;43.47;;;23.00;;
5989;SDS011;14149;53.562;10.032;2022-12-17T03:55:10;43.43;;;22.57;;
5989;SDS011;14149;53.562;10.032;2022-12-17T03:57:54;45.40;;;24.57;;
5989;SDS011;14149;53.562;10.032;2022-12-17T04:00:39;43.13;;;23.30;;
5989;SDS011;14149;53.562;10.032;2022-12-17T04:03:24;41.13;;;19.67;;
5989;SDS011;14149;53.562;10.032;2022-12-17T04:06:08;42.27;;;23.07;;
5989;SDS011;14149;53.562;10.032;2022-12-17T04:08:53;42.80;;;23.80;;
5989;SDS011;14149;53.562;10.032;2022-12-17T04:11:38;47.33;;;24.07;;
5989;SDS011;14149;53.562;10.032;2022-12-17T04:14:22;40.27;;;22.43;;
5989;SDS011;14149;53.562;10.032;2022-12-17T04:17:06;48.27;;;21.90;;
5989;SDS011;14149;53.562;10.032;2022-12-17T04:19:51;47.43;;;23.03;;
5989;SDS011;14149;53.562;10.032;2022-12-17T04:22:36;49.27;;;23.73;;
5989;SDS011;14149;53.562;10.032;2022-12-17T04:25:20;41.83;;;22.73;;
5989;SDS011;14149;53.562;10.032;2022-12-17T04:28:05;51.90;;;24.17;;
5989;SDS011;14149;53.562;10.032;2022-12-17T04:30:49;37.07;;;20.40;;
5989;SDS011;14149;53.562;10.032;2022-12-17T04:33:34;41.87;;;20.93;;
5989;SDS011;14149;53.562;10.032;2022-12-17T04:36:19;46.47;;;22.63;;
5989;SDS011;14149;53.562;10.032;2022-12-17T04:39:03;48.30;;;23.00;;
5989;SDS011;14149;53.562;10.032;2022-12-17T04:41:48;48.03;;;19.60;;
5989;SDS011;14149;53.562;10.032;2022-12-17T04:44:32;46.70;;;21.30;;
5989;SDS011;14149;53.562;10.032;2022-12-17T04:47:17;49.33;;;22.70;;
5989;SDS011;14149;53.562;10.032;2022-12-17T04:50:02;34.00;;;20.70;;
5989;SDS011;14149;53.562;10.032;2022-12-17T04:52:47;43.47;;;22.40;;
5989;SDS011;14149;53.562;10.032;2022-12-17T04:55:31;47.10;;;21.60;;
5989;SDS011;14149;53.562;10.032;2022-12-17T04:58:16;38.80;;;20.60;;
5989;SDS011;14149;53.562;10.032;2022-12-17T05:01:01;45.87;;;20.97;;
5989;SDS011;14149;53.562;10.032;2022-12-17T05:03:45;40.77;;;20.63;;
5989;SDS011;14149;53.562;10.032;2022-12-17T05:06:30;46.17;;;22.23;;
5989;SDS011;14149;53.562;10.032;2022-12-17T05:09:14;41.93;;;19.17;;
5989;SDS011;14149;53.562;10.032;2022-12-17T05:11:59;44.17;;;20.50;;
5989;SDS011;14149;53.562;10.032;2022-12-17T05:14:44;35.07;;;18.13;;
5989;SDS011;14149;53.562;10.032;2022-12-17T05:17:28;44.17;;;21.07;;
5989;SDS011;14149;53.562;10.032;2022-12-17T05:20:13;44.10;;;21.60;;
5989;SDS011;14149;53.562;10.032;2022-12-17T05:23:03;41.90;;;20.03;;
5989;SDS011;14149;53.562;10.032;2022-12-17T05:25:48;42.00;;;19.87;;
5989;SDS011;14149;53.562;10.032;2022-12-17T05:28:33;33.37;;;17.30;;
5989;SDS011;14149;53.562;10.032;2022-12-17T05:31:17;35.50;;;22.20;;
5989;SDS011;14149;53.562;10.032;2022-12-17T05:34:02;38.47;;;18.77;;
5989;SDS011;14149;53.562;10.032;2022-12-17T05:36:47;45.67;;;20.63;;
5989;SDS011;14149;53.562;10.032;2022-12-17T05:39:31;31.53;;;18.13;;
5989;SDS011;14149;53.562;10.032;2022-12-17T05:42:16;38.53;;;20.37;;
5989;SDS011;14149;53.562;10.032;2022-12-17T05:45:00;39.63;;;21.47;;
5989;SDS011;14149;53.562;10.032;2022-12-17T05:47:45;39.60;;;21.37;;
5989;SDS011;14149;53.562;10.032;2022-12-17T05:50:30;32.80;;;16.40;;
5989;SDS011;14149;53.562;10.032;2022-12-17T05:53:14;37.33;;;18.87;;
5989;SDS011;14149;53.562;10.032;2022-12-17T05:55:59;38.10;;;20.20;;
5989;SDS011;14149;53.562;10.032;2022-12-17T05:58:44;39.20;;;19.27;;
5989;SDS011;14149;53.562;10.032;2022-12-17T06:01:29;36.07;;;18.43;;
5989;SDS011;14149;53.562;10.032;2022-12-17T06:04:13;40.50;;;17.83;;
5989;SDS011;14149;53.562;10.032;2022-12-17T06:06:58;35.83;;;18.20;;
5989;SDS011;14149;53.562;10.032;2022-12-17T06:09:42;39.93;;;18.33;;
5989;SDS011;14149;53.562;10.032;2022-12-17T06:12:27;36.30;;;17.77;;
5989;SDS011;14149;53.562;10.032;2022-12-17T06:15:11;37.83;;;18.70;;
5989;SDS011;14149;53.562;10.032;2022-12-17T06:17:56;35.53;;;18.67;;
5989;SDS011;14149;53.562;10.032;2022-12-17T06:20:41;40.33;;;18.27;;
5989;SDS011;14149;53.562;10.032;2022-12-17T06:23:25;43.03;;;16.53;;
5989;SDS011;14149;53.562;10.032;2022-12-17T06:26:10;40.03;;;17.77;;
5989;SDS011;14149;53.562;10.032;2022-12-17T06:28:55;37.90;;;19.53;;
5989;SDS011;14149;53.562;10.032;2022-12-17T06:31:39;37.90;;;18.10;;
5989;SDS011;14149;53.562;10.032;2022-12-17T06:34:24;38.73;;;17.00;;
5989;SDS011;14149;53.562;10.032;2022-12-17T06:37:09;31.87;;;19.70;;
5989;SDS011;14149;53.562;10.032;2022-12-17T06:39:58;34.57;;;17.50;;
5989;SDS011;14149;53.562;10.032;2022-12-17T06:42:50;47.07;;;20.17;;
5989;SDS011;14149;53.562;10.032;2022-12-17T06:45:35;42.47;;;19.67;;
5989;SDS011;14149;53.562;10.032;2022-12-17T06:48:20;27.43;;;15.30;;
5989;SDS011;14149;53.562;10.032;2022-12-17T06:51:05;39.27;;;19.03;;
5989;SDS011;14149;53.562;10.032;2022-12-17T06:53:50;40.00;;;17.50;;
5989;SDS011;14149;53.562;10.032;2022-12-17T06:56:34;34.73;;;16.50;;
5989;SDS011;14149;53.562;10.032;2022-12-17T06:59:19;34.83;;;17.27;;
5989;SDS011;14149;53.562;10.032;2022-12-17T07:02:03;31.23;;;17.47;;
5989;SDS011;14149;53.562;10.032;2022-12-17T07:04:48;36.47;;;19.00;;
5989;SDS011;14149;53.562;10.032;2022-12-17T07:07:33;33.70;;;18.17;;
5989;SDS011;14149;53.562;10.032;2022-12-17T07:10:17;32.87;;;17.23;;
5989;SDS011;14149;53.562;10.032;2022-12-17T07:13:06;34.90;;;17.30;;
5989;SDS011;14149;53.562;10.032;2022-12-17T07:15:52;41.80;;;18.00;;
5989;SDS011;14149;53.562;10.032;2022-12-17T07:18:37;32.37;;;17.27;;
5989;SDS011;14149;53.562;10.032;2022-12-17T07:21:22;25.00;;;14.37;;
5989;SDS011;14149;53.562;10.032;2022-12-17T07:24:07;41.30;;;18.30;;
5989;SDS011;14149;53.562;10.032;2022-12-17T07:26:52;30.07;;;16.20;;
5989;SDS011;14149;53.562;10.032;2022-12-17T07:29:44;28.27;;;14.40;;
5989;SDS011;14149;53.562;10.032;2022-12-17T07:32:29;35.97;;;16.57;;
5989;SDS011;14149;53.562;10.032;2022-12-17T07:35:14;29.80;;;15.37;;
5989;SDS011;14149;53.562;10.032;2022-12-17T07:37:59;29.13;;;16.10;;
5989;SDS011;14149;53.562;10.032;2022-12-17T07:40:44;39.33;;;17.00;;
5989;SDS011;14149;53.562;10.032;2022-12-17T07:43:29;30.00;;;13.90;;
5989;SDS011;14149;53.562;10.032;2022-12-17T07:46:14;30.80;;;15.90;;
5989;SDS011;14149;53.562;10.032;2022-12-17T07:48:58;29.47;;;15.23;;
5989;SDS011;14149;53.562;10.032;2022-12-17T07:51:43;38.30;;;14.73;;
5989;SDS011;14149;53.562;10.032;2022-12-17T07:54:27;33.17;;;16.50;;
5989;SDS011;14149;53.562;10.032;2022-12-17T07:57:12;29.00;;;16.67;;
5989;SDS011;14149;53.562;10.032;2022-12-17T07:59:57;36.07;;;16.07;;
5989;SDS011;14149;53.562;10.032;2022-12-17T08:02:41;33.20;;;16.50;;
5989;SDS011;14149;53.562;10.032;2022-12-17T08:05:26;29.93;;;14.80;;
5989;SDS011;14149;53.562;10.032;2022-12-17T08:08:11;33.70;;;16.00;;
5989;SDS011;14149;53.562;10.032;2022-12-17T08:10:56;36.50;;;17.37;;
5989;SDS011;14149;53.562;10.032;2022-12-17T08:13:41;32.50;;;14.47;;
5989;SDS011;14149;53.562;10.032;2022-12-17T08:16:26;36.47;;;15.50;;
5989;SDS011;14149;53.562;10.032;2022-12-17T08:19:10;39.27;;;16.10;;
5989;SDS011;14149;53.562;10.032;2022-12-17T08:21:55;32.43;;;17.33;;
5989;SDS011;14149;53.562;10.032;2022-12-17T08:24:39;28.40;;;13.93;;
5989;SDS011;14149;53.562;10.032;2022-12-17T08:27:24;40.87;;;19.40;;
5989;SDS011;14149;53.562;10.032;2022-12-17T08:30:09;41.07;;;17.27;;
5989;SDS011;14149;53.562;10.032;2022-12-17T08:33:01;36.37;;;16.50;;
5989;SDS011;14149;53.562;10.032;2022-12-17T08:35:50;34.70;;;17.60;;
5989;SDS011;14149;53.562;10.032;2022-12-17T08:38:35;36.00;;;18.50;;
5989;SDS011;14149;53.562;10.032;2022-12-17T08:41:19;28.23;;;16.83;;
5989;SDS011;14149;53.562;10.032;2022-12-17T08:44:04;43.13;;;19.17;;
5989;SDS011;14149;53.562;10.032;2022-12-17T08:46:49;46.73;;;19.87;;
5989;SDS011;14149;53.562;10.032;2022-12-17T08:49:34;38.20;;;18.43;;
5989;SDS011;14149;53.562;10.032;2022-12-17T08:52:18;45.43;;;19.17;;
5989;SDS011;14149;53.562;10.032;2022-12-17T08:55:03;51.07;;;20.70;;
5989;SDS011;14149;53.562;10.032;2022-12-17T08:57:52;32.83;;;15.97;;
5989;SDS011;14149;53.562;10.032;2022-12-17T09:00:37;35.57;;;18.00;;
5989;SDS011;14149;53.562;10.032;2022-12-17T09:03:21;35.67;;;19.87;;
5989;SDS011;14149;53.562;10.032;2022-12-17T09:06:06;37.20;;;19.10;;
5989;SDS011;14149;53.562;10.032;2022-12-17T09:08:51;42.27;;;20.27;;
5989;SDS011;14149;53.562;10.032;2022-12-17T09:11:35;30.60;;;17.07;;
5989;SDS011;14149;53.562;10.032;2022-12-17T09:14:20;33.90;;;18.87;;
5989;SDS011;14149;53.562;10.032;2022-12-17T09:17:05;45.60;;;21.23;;
5989;SDS011;14149;53.562;10.032;2022-12-17T09:19:49;37.23;;;19.40;;
5989;SDS011;14149;53.562;10.032;2022-12-17T09:22:34;35.70;;;18.07;;
5989;SDS011;14149;53.562;10.032;2022-12-17T09:25:19;32.53;;;18.07;;
5989;SDS011;14149;53.562;10.032;2022-12-17T09:28:04;35.97;;;18.17;;
5989;SDS011;14149;53.562;10.032;2022-12-17T09:30:48;43.77;;;19.00;;
5989;SDS011;14149;53.562;10.032;2022-12-17T09:33:33;34.57;;;18.10;;
5989;SDS011;14149;53.562;10.032;2022-12-17T09:36:18;35.63;;;17.80;;
5989;SDS011;14149;53.562;10.032;2022-12-17T09:39:03;29.47;;;17.07;;
5989;SDS011;14149;53.562;10.032;2022-12-17T09:44:38;30.93;;;18.20;;
5989;SDS011;14149;53.562;10.032;2022-12-17T09:50:29;37.97;;;17.10;;
5989;SDS011;14149;53.562;10.032;2022-12-17T09:56:34;34.03;;;18.27;;
5989;SDS011;14149;53.562;10.032;2022-12-17T09:59:20;34.80;;;19.93;;
5989;SDS011;14149;53.562;10.032;2022-12-17T10:02:25;33.50;;;16.57;;
5989;SDS011;14149;53.562;10.032;2022-12-17T10:05:15;36.93;;;17.57;;
5989;SDS011;14149;53.562;10.032;2022-12-17T10:08:03;34.73;;;19.00;;
5989;SDS011;14149;53.562;10.032;2022-12-17T10:10:48;29.93;;;16.30;;
5989;SDS011;14149;53.562;10.032;2022-12-17T10:13:33;34.53;;;17.60;;
5989;SDS011;14149;53.562;10.032;2022-12-17T10:19:16;31.93;;;18.10;;
5989;SDS011;14149;53.562;10.032;2022-12-17T10:22:07;47.10;;;18.50;;
5989;SDS011;14149;53.562;10.032;2022-12-17T10:24:52;32.13;;;17.60;;
5989;SDS011;14149;53.562;10.032;2022-12-17T10:27:37;29.30;;;17.70;;
5989;SDS011;14149;53.562;10.032;2022-12-17T10:30:22;33.97;;;17.27;;
5989;SDS011;14149;53.562;10.032;2022-12-17T10:33:06;36.80;;;18.17;;
5989;SDS011;14149;53.562;10.032;2022-12-17T10:35:51;32.37;;;17.80;;
5989;SDS011;14149;53.562;10.032;2022-12-17T10:38:36;32.67;;;16.27;;
5989;SDS011;14149;53.562;10.032;2022-12-17T10:41:25;29.77;;;16.97;;
5989;SDS011;14149;53.562;10.032;2022-12-17T10:44:27;24.40;;;16.63;;
5989;SDS011;14149;53.562;10.032;2022-12-17T10:47:13;33.33;;;18.93;;
5989;SDS011;14149;53.562;10.032;2022-12-17T10:49:59;29.97;;;16.87;;
5989;SDS011;14149;53.562;10.032;2022-12-17T10:52:45;35.37;;;17.43;;
5989;SDS011;14149;53.562;10.032;2022-12-17T10:55:30;37.03;;;18.30;;
5989;SDS011;14149;53.562;10.032;2022-12-17T10:58:24;37.63;;;18.37;;
5989;SDS011;14149;53.562;10.032;2022-12-17T11:01:09;25.53;;;14.00;;
5989;SDS011;14149;53.562;10.032;2022-12-17T11:03:55;38.53;;;18.57;;
5989;SDS011;14149;53.562;10.032;2022-12-17T11:06:41;32.73;;;18.40;;
5989;SDS011;14149;53.562;10.032;2022-12-17T11:12:12;30.33;;;17.63;;
5989;SDS011;14149;53.562;10.032;2022-12-17T11:15:00;33.07;;;18.40;;
5989;SDS011;14149;53.562;10.032;2022-12-17T11:18:09;36.73;;;18.17;;
5989;SDS011;14149;53.562;10.032;2022-12-17T11:20:57;31.33;;;17.57;;
5989;SDS011;14149;53.562;10.032;2022-12-17T11:23:44;43.00;;;18.93;;
5989;SDS011;14149;53.562;10.032;2022-12-17T11:26:31;34.53;;;17.57;;
5989;SDS011;14149;53.562;10.032;2022-12-17T11:29:31;39.47;;;18.40;;
5989;SDS011;14149;53.562;10.032;2022-12-17T11:32:22;36.07;;;17.30;;
5989;SDS011;14149;53.562;10.032;2022-12-17T11:35:13;32.47;;;18.27;;
5989;SDS011;14149;53.562;10.032;2022-12-17T11:40:54;30.87;;;17.23;;
5989;SDS011;14149;53.562;10.032;2022-12-17T11:43:48;44.73;;;18.77;;
5989;SDS011;14149;53.562;10.032;2022-12-17T11:55:16;33.57;;;17.83;;
5989;SDS011;14149;53.562;10.032;2022-12-17T11:58:04;29.27;;;17.07;;
5989;SDS011;14149;53.562;10.032;2022-12-17T12:00:54;40.63;;;22.20;;
5989;SDS011;14149;53.562;10.032;2022-12-17T12:06:30;34.80;;;19.50;;
5989;SDS011;14149;53.562;10.032;2022-12-17T12:09:33;37.27;;;19.40;;
5989;SDS011;14149;53.562;10.032;2022-12-17T12:18:10;36.50;;;17.90;;
5989;SDS011;14149;53.562;10.032;2022-12-17T12:30:03;32.77;;;17.43;;
5989;SDS011;14149;53.562;10.032;2022-12-17T12:35:33;27.87;;;16.70;;
5989;SDS011;14149;53.562;10.032;2022-12-17T12:38:27;31.43;;;16.60;;
5989;SDS011;14149;53.562;10.032;2022-12-17T12:41:19;27.27;;;15.27;;
5989;SDS011;14149;53.562;10.032;2022-12-17T12:44:15;30.70;;;17.50;;
5989;SDS011;14149;53.562;10.032;2022-12-17T12:47:07;31.80;;;18.10;;
5989;SDS011;14149;53.562;10.032;2022-12-17T12:52:38;31.80;;;16.47;;
5989;SDS011;14149;53.562;10.032;2022-12-17T12:55:34;27.30;;;16.07;;
5989;SDS011;14149;53.562;10.032;2022-12-17T12:58:26;26.27;;;14.60;;
5989;SDS011;14149;53.562;10.032;2022-12-17T13:01:11;28.80;;;15.60;;
5989;SDS011;14149;53.562;10.032;2022-12-17T13:03:57;30.10;;;15.23;;
5989;SDS011;14149;53.562;10.032;2022-12-17T13:06:44;29.20;;;15.77;;
5989;SDS011;14149;53.562;10.032;2022-12-17T13:14:22;24.27;;;12.23;;
5989;SDS011;14149;53.562;10.032;2022-12-17T13:19:39;20.20;;;13.10;;
5989;SDS011;14149;53.562;10.032;2022-12-17T13:22:25;23.73;;;11.57;;
5989;SDS011;14149;53.562;10.032;2022-12-17T13:24:53;20.80;;;11.00;;
5989;SDS011;14149;53.562;10.032;2022-12-17T13:42:44;20.70;;;11.00;;
5989;SDS011;14149;53.562;10.032;2022-12-17T13:45:13;15.50;;;8.93;;
5989;SDS011;14149;53.562;10.032;2022-12-17T13:47:40;15.63;;;9.77;;
5989;SDS011;14149;53.562;10.032;2022-12-17T13:50:18;18.57;;;9.40;;
5989;SDS011;14149;53.562;10.032;2022-12-17T13:52:44;18.63;;;10.40;;
5989;SDS011;14149;53.562;10.032;2022-12-17T13:55:16;19.90;;;10.93;;
5989;SDS011;14149;53.562;10.032;2022-12-17T13:57:44;21.47;;;10.40;;
5989;SDS011;14149;53.562;10.032;2022-12-17T14:00:17;16.97;;;9.00;;
5989;SDS011;14149;53.562;10.032;2022-12-17T14:02:43;20.03;;;11.07;;
5989;SDS011;14149;53.562;10.032;2022-12-17T14:07:51;18.77;;;10.67;;
5989;SDS011;14149;53.562;10.032;2022-12-17T14:10:17;23.10;;;9.83;;
5989;SDS011;14149;53.562;10.032;2022-12-17T14:12:44;21.47;;;9.57;;
5989;SDS011;14149;53.562;10.032;2022-12-17T14:17:46;16.33;;;9.80;;
5989;SDS011;14149;53.562;10.032;2022-12-17T14:20:14;20.13;;;10.87;;
5989;SDS011;14149;53.562;10.032;2022-12-17T14:22:50;20.20;;;9.87;;
5989;SDS011;14149;53.562;10.032;2022-12-17T14:25:25;20.93;;;10.43;;
5989;SDS011;14149;53.562;10.032;2022-12-17T14:28:02;19.07;;;9.33;;
5989;SDS011;14149;53.562;10.032;2022-12-17T14:30:36;16.10;;;8.40;;
5989;SDS011;14149;53.562;10.032;2022-12-17T14:33:03;19.07;;;9.80;;
5989;SDS011;14149;53.562;10.032;2022-12-17T14:35:30;20.10;;;10.50;;
5989;SDS011;14149;53.562;10.032;2022-12-17T14:37:58;17.87;;;9.60;;
5989;SDS011;14149;53.562;10.032;2022-12-17T14:40:25;24.50;;;9.80;;
5989;SDS011;14149;53.562;10.032;2022-12-17T14:42:51;19.40;;;9.67;;
5989;SDS011;14149;53.562;10.032;2022-12-17T14:48:17;19.00;;;8.70;;
5989;SDS011;14149;53.562;10.032;2022-12-17T14:50:37;17.47;;;9.23;;
5989;SDS011;14149;53.562;10.032;2022-12-17T14:53:04;17.60;;;9.87;;
5989;SDS011;14149;53.562;10.032;2022-12-17T14:55:52;21.37;;;11.80;;
5989;SDS011;14149;53.562;10.032;2022-12-17T14:58:19;17.23;;;9.83;;
5989;SDS011;14149;53.562;10.032;2022-12-17T15:00:50;15.80;;;9.20;;
5989;SDS011;14149;53.562;10.032;2022-12-17T15:03:29;19.13;;;10.40;;
5989;SDS011;14149;53.562;10.032;2022-12-17T15:06:05;23.03;;;9.60;;
5989;SDS011;14149;53.562;10.032;2022-12-17T15:08:34;19.73;;;10.93;;
5989;SDS011;14149;53.562;10.032;2022-12-17T15:11:01;20.47;;;10.90;;
5989;SDS011;14149;53.562;10.032;2022-12-17T15:13:27;24.77;;;8.93;;
5989;SDS011;14149;53.562;10.032;2022-12-17T15:15:53;17.47;;;8.40;;
5989;SDS011;14149;53.562;10.032;2022-12-17T15:18:19;16.30;;;8.63;;
5989;SDS011;14149;53.562;10.032;2022-12-17T15:20:45;16.57;;;9.30;;
5989;SDS011;14149;53.562;10.032;2022-12-17T15:23:18;26.50;;;11.20;;
5989;SDS011;14149;53.562;10.032;2022-12-17T15:25:45;19.13;;;9.50;;
5989;SDS011;14149;53.562;10.032;2022-12-17T15:28:12;22.17;;;11.27;;
5989;SDS011;14149;53.562;10.032;2022-12-17T15:30:38;26.23;;;11.90;;
5989;SDS011;14149;53.562;10.032;2022-12-17T15:33:07;19.97;;;10.87;;
5989;SDS011;14149;53.562;10.032;2022-12-17T15:35:33;20.70;;;12.40;;
5989;SDS011;14149;53.562;10.032;2022-12-17T15:37:59;23.60;;;10.97;;
5989;SDS011;14149;53.562;10.032;2022-12-17T15:40:26;20.93;;;10.40;;
5989;SDS011;14149;53.562;10.032;2022-12-17T15:42:52;19.47;;;10.23;;
5989;SDS011;14149;53.562;10.032;2022-12-17T15:45:40;17.33;;;11.00;;
5989;SDS011;14149;53.562;10.032;2022-12-17T15:48:07;23.20;;;11.23;;
5989;SDS011;14149;53.562;10.032;2022-12-17T15:50:33;14.50;;;7.30;;
5989;SDS011;14149;53.562;10.032;2022-12-17T15:52:59;26.03;;;10.83;;
5989;SDS011;14149;53.562;10.032;2022-12-17T15:55:26;12.00;;;8.93;;
5989;SDS011;14149;53.562;10.032;2022-12-17T15:57:52;22.10;;;10.07;;
5989;SDS011;14149;53.562;10.032;2022-12-17T16:00:20;25.60;;;11.93;;
5989;SDS011;14149;53.562;10.032;2022-12-17T16:02:48;19.00;;;9.00;;
5989;SDS011;14149;53.562;10.032;2022-12-17T16:05:16;22.63;;;11.57;;
5989;SDS011;14149;53.562;10.032;2022-12-17T16:07:46;20.63;;;9.43;;
5989;SDS011;14149;53.562;10.032;2022-12-17T16:10:12;17.70;;;8.70;;
5989;SDS011;14149;53.562;10.032;2022-12-17T16:12:39;26.27;;;10.70;;
5989;SDS011;14149;53.562;10.032;2022-12-17T16:15:05;19.47;;;9.50;;
5989;SDS011;14149;53.562;10.032;2022-12-17T16:17:34;13.03;;;6.90;;
5989;SDS011;14149;53.562;10.032;2022-12-17T16:20:01;17.27;;;8.80;;
5989;SDS011;14149;53.562;10.032;2022-12-17T16:22:27;24.47;;;10.43;;
5989;SDS011;14149;53.562;10.032;2022-12-17T16:24:53;16.57;;;10.23;;
5989;SDS011;14149;53.562;10.032;2022-12-17T16:27:20;25.13;;;10.33;;
5989;SDS011;14149;53.562;10.032;2022-12-17T16:29:46;14.20;;;9.80;;
5989;SDS011;14149;53.562;10.032;2022-12-17T16:32:12;20.53;;;11.30;;
5989;SDS011;14149;53.562;10.032;2022-12-17T16:34:39;17.47;;;10.77;;
5989;SDS011;14149;53.562;10.032;2022-12-17T16:37:05;20.40;;;11.33;;
5989;SDS011;14149;53.562;10.032;2022-12-17T16:39:31;23.73;;;10.53;;
5989;SDS011;14149;53.562;10.032;2022-12-17T16:41:57;14.30;;;7.00;;
5989;SDS011;14149;53.562;10.032;2022-12-17T16:44:23;19.47;;;9.83;;
5989;SDS011;14149;53.562;10.032;2022-12-17T16:46:50;17.70;;;9.77;;
5989;SDS011;14149;53.562;10.032;2022-12-17T16:49:22;22.53;;;10.23;;
5989;SDS011;14149;53.562;10.032;2022-12-17T16:51:52;19.13;;;9.20;;
5989;SDS011;14149;53.562;10.032;2022-12-17T16:54:19;26.60;;;10.33;;
5989;SDS011;14149;53.562;10.032;2022-12-17T16:56:46;18.37;;;9.70;;
5989;SDS011;14149;53.562;10.032;2022-12-17T16:59:13;19.57;;;11.03;;
5989;SDS011;14149;53.562;10.032;2022-12-17T17:01:40;25.03;;;11.10;;
5989;SDS011;14149;53.562;10.032;2022-12-17T17:04:07;16.63;;;9.63;;
5989;SDS011;14149;53.562;10.032;2022-12-17T17:06:37;20.60;;;10.90;;
5989;SDS011;14149;53.562;10.032;2022-12-17T17:09:04;23.10;;;10.90;;
5989;SDS011;14149;53.562;10.032;2022-12-17T17:11:30;21.67;;;11.60;;
5989;SDS011;14149;53.562;10.032;2022-12-17T17:13:56;22.30;;;11.57;;
5989;SDS011;14149;53.562;10.032;2022-12-17T17:16:23;21.57;;;12.60;;